createdAt,value
2022-12-28T00:01:32.854Z,1.24
2022-12-28T00:04:03.381Z,1.21
2022-12-28T00:06:32.398Z,1.20
2022-12-28T00:09:01.287Z,1.20
2022-12-28T00:11:30.936Z,1.19
2022-12-28T00:14:00.887Z,1.18
2022-12-28T00:16:35.289Z,1.17
2022-12-28T00:19:07.339Z,1.16
2022-12-28T00:21:34.836Z,1.15
2022-12-28T00:24:02.582Z,1.13
2022-12-28T00:26:33.299Z,1.10
2022-12-28T00:29:05.342Z,1.12
2022-12-28T00:31:32.099Z,1.11
2022-12-28T00:33:59.824Z,1.09
2022-12-28T00:37:08.386Z,1.09
2022-12-28T00:38:57.300Z,1.07
2022-12-28T00:41:25.426Z,1.06
2022-12-28T00:43:53.122Z,1.04
2022-12-28T00:46:20.840Z,1.04
2022-12-28T00:48:48.231Z,1.04
2022-12-28T00:51:19.362Z,1.03
2022-12-28T00:53:47.206Z,1.02
2022-12-28T00:56:18.877Z,1.01
2022-12-28T00:58:49.138Z,0.99
2022-12-28T01:01:20.962Z,0.98
2022-12-28T01:03:49.066Z,0.96
2022-12-28T01:06:20.390Z,0.94
2022-12-28T01:08:48.263Z,0.88
2022-12-28T01:11:25.755Z,0.84
2022-12-28T01:13:57.620Z,0.79
2022-12-28T01:16:33.229Z,0.78
2022-12-28T01:19:04.972Z,0.75
2022-12-28T01:21:34.729Z,0.78
2022-12-28T01:24:07.299Z,0.77
2022-12-28T01:26:35.249Z,0.76
2022-12-28T01:29:03.414Z,0.76
2022-12-28T01:31:33.342Z,0.75
2022-12-28T01:34:01.915Z,0.74
2022-12-28T01:36:32.369Z,0.74
2022-12-28T01:39:03.838Z,0.71
2022-12-28T01:41:37.103Z,0.70
2022-12-28T01:44:10.275Z,0.68
2022-12-28T01:46:54.975Z,0.66
2022-12-28T01:49:45.937Z,0.63
2022-12-28T01:52:28.241Z,0.60
2022-12-28T01:55:19.306Z,0.62
2022-12-28T01:57:52.386Z,0.62
2022-12-28T02:00:20.359Z,0.62
2022-12-28T02:02:59.065Z,0.60
2022-12-28T02:05:34.493Z,0.58
2022-12-28T02:08:07.196Z,0.58
2022-12-28T02:10:42.805Z,0.55
2022-12-28T02:13:07.416Z,0.52
2022-12-28T02:15:35.765Z,0.50
2022-12-28T02:18:03.895Z,0.49
2022-12-28T02:20:43.971Z,0.52
2022-12-28T02:24:06.165Z,0.53
2022-12-28T02:27:14.623Z,0.55
2022-12-28T02:30:11.043Z,0.57
2022-12-28T02:33:04.773Z,0.59
2022-12-28T02:36:02.634Z,0.60
2022-12-28T02:38:49.343Z,0.62
2022-12-28T02:41:23.988Z,0.63
2022-12-28T02:43:54.128Z,0.64
2022-12-28T02:46:49.593Z,0.62
2022-12-28T02:49:46.227Z,0.65
2022-12-28T02:52:39.026Z,0.63
2022-12-28T02:56:08.402Z,0.62
2022-12-28T02:59:01.084Z,0.61
2022-12-28T03:01:54.175Z,0.58
2022-12-28T03:04:50.208Z,0.55
2022-12-28T03:07:45.411Z,0.51
2022-12-28T03:10:45.493Z,0.48
2022-12-28T03:13:44.496Z,0.47
2022-12-28T03:16:25.151Z,0.45
2022-12-28T03:19:22.085Z,0.42
2022-12-28T03:22:13.117Z,0.41
2022-12-28T03:25:04.200Z,0.40
2022-12-28T03:27:52.776Z,0.43
2022-12-28T03:30:41.218Z,0.45
2022-12-28T03:33:13.330Z,0.45
2022-12-28T03:36:07.111Z,0.47
2022-12-28T03:39:13.803Z,0.49
2022-12-28T03:42:41.662Z,0.53
2022-12-28T03:45:45.669Z,0.54
2022-12-28T03:48:11.893Z,0.47
2022-12-28T03:50:50.759Z,0.44
2022-12-28T03:53:36.038Z,0.42
2022-12-28T03:56:16.575Z,0.40
2022-12-28T03:58:53.881Z,0.38
2022-12-28T04:01:32.935Z,0.37
2022-12-28T04:04:04.685Z,0.33
2022-12-28T04:06:39.754Z,0.28
2022-12-28T04:09:09.250Z,0.24
2022-12-28T04:11:42.328Z,0.26
2022-12-28T04:14:13.207Z,0.26
2022-12-28T04:16:43.176Z,0.27
2022-12-28T04:19:12.866Z,0.24
2022-12-28T04:21:40.706Z,0.22
2022-12-28T04:24:08.823Z,0.20
2022-12-28T04:26:37.371Z,0.22
2022-12-28T04:29:05.161Z,0.19
2022-12-28T04:31:40.464Z,0.20
2022-12-28T04:34:10.036Z,0.21
2022-12-28T04:36:39.954Z,0.21
2022-12-28T04:39:09.878Z,0.21
2022-12-28T04:41:37.562Z,0.23
2022-12-28T04:44:05.268Z,0.20
2022-12-28T04:46:33.042Z,0.23
2022-12-28T04:49:01.130Z,0.25
2022-12-28T04:51:29.657Z,0.28
2022-12-28T04:53:58.160Z,0.32
2022-12-28T04:56:27.519Z,0.36
2022-12-28T04:58:57.940Z,0.35
2022-12-28T05:01:26.223Z,0.40
2022-12-28T05:03:57.374Z,0.41
2022-12-28T05:06:26.780Z,0.40
2022-12-28T05:08:56.796Z,0.40
2022-12-28T05:11:27.856Z,0.42
2022-12-28T05:13:56.843Z,0.43
2022-12-28T05:16:27.295Z,0.43
2022-12-28T05:18:57.009Z,0.44
2022-12-28T05:21:27.805Z,0.43
2022-12-28T05:23:56.022Z,0.40
2022-12-28T05:26:28.187Z,0.40
2022-12-28T05:28:56.752Z,0.40
2022-12-28T05:31:24.989Z,0.42
2022-12-28T05:33:54.546Z,0.42
2022-12-28T05:36:27.468Z,0.44
2022-12-28T05:38:56.366Z,0.41
2022-12-28T05:41:27.783Z,0.46
2022-12-28T05:43:57.553Z,0.46
2022-12-28T05:46:29.468Z,0.52
2022-12-28T05:48:57.625Z,0.52
2022-12-28T05:51:29.024Z,0.54
2022-12-28T05:53:59.780Z,0.54
2022-12-28T05:56:29.757Z,0.56
2022-12-28T05:59:01.918Z,0.57
2022-12-28T06:01:34.039Z,0.53
2022-12-28T06:04:05.276Z,0.46
2022-12-28T06:06:34.730Z,0.39
2022-12-28T06:09:03.495Z,0.36
2022-12-28T06:11:31.656Z,0.34
2022-12-28T06:14:00.180Z,0.32
2022-12-28T06:16:31.030Z,0.33
2022-12-28T06:18:59.453Z,0.29
2022-12-28T06:21:32.395Z,0.25
2022-12-28T06:24:02.156Z,0.21
2022-12-28T06:26:35.928Z,0.20
2022-12-28T06:29:04.645Z,0.19
2022-12-28T06:31:38.756Z,0.19
2022-12-28T06:34:09.603Z,0.21
2022-12-28T06:36:43.454Z,0.19
2022-12-28T06:39:14.176Z,0.15
2022-12-28T06:41:42.738Z,0.15
2022-12-28T06:44:13.259Z,0.15
2022-12-28T06:46:41.436Z,0.17
2022-12-28T06:49:09.051Z,0.17
2022-12-28T06:51:39.918Z,0.24
2022-12-28T06:54:09.376Z,0.29
2022-12-28T06:56:38.069Z,0.36
2022-12-28T06:59:06.010Z,0.36
2022-12-28T07:01:39.832Z,0.35
2022-12-28T07:04:10.259Z,0.34
2022-12-28T07:06:42.280Z,0.39
2022-12-28T07:09:14.024Z,0.42
2022-12-28T07:11:42.466Z,0.45
2022-12-28T07:14:10.486Z,0.46
2022-12-28T07:19:05.043Z,0.54
2022-12-28T07:21:37.137Z,0.58
2022-12-28T07:24:06.078Z,0.61
2022-12-28T07:26:36.693Z,0.65
2022-12-28T07:29:06.698Z,0.70
2022-12-28T07:31:44.197Z,0.76
2022-12-28T07:34:07.588Z,0.80
2022-12-28T07:36:35.069Z,0.84
2022-12-28T07:39:02.757Z,0.89
2022-12-28T07:41:33.680Z,0.92
2022-12-28T07:44:01.939Z,1.02
2022-12-28T07:46:33.411Z,1.11
2022-12-28T07:49:01.673Z,1.16
2022-12-28T07:51:34.298Z,1.25
2022-12-28T07:54:03.102Z,1.34
2022-12-28T07:59:05.892Z,1.48
2022-12-28T08:01:36.128Z,1.56
2022-12-28T08:04:11.083Z,1.61
2022-12-28T08:06:41.993Z,1.67
2022-12-28T08:09:12.736Z,1.68
2022-12-28T08:11:43.811Z,1.74
2022-12-28T08:14:12.433Z,1.73
2022-12-28T08:16:42.449Z,1.72
2022-12-28T08:19:11.580Z,1.72
2022-12-28T08:21:43.103Z,1.74
2022-12-28T08:24:18.095Z,1.77
2022-12-28T08:26:47.132Z,1.84
2022-12-28T08:29:18.798Z,1.94
2022-12-28T08:31:46.885Z,2.06
2022-12-28T08:34:19.411Z,2.17
2022-12-28T08:36:47.071Z,2.25
2022-12-28T08:39:15.022Z,2.35
2022-12-28T08:41:42.781Z,2.42
2022-12-28T08:44:10.425Z,2.47
2022-12-28T08:46:39.847Z,2.51
2022-12-28T08:49:07.744Z,2.58
2022-12-28T08:51:40.782Z,2.62
2022-12-28T08:54:10.678Z,2.68
2022-12-28T08:56:41.851Z,2.75
2022-12-28T08:59:13.623Z,2.82
2022-12-28T09:01:44.500Z,2.86
2022-12-28T09:04:20.648Z,2.95
2022-12-28T09:06:48.816Z,3.05
2022-12-28T09:09:19.289Z,3.17
2022-12-28T09:11:48.009Z,3.28
2022-12-28T09:14:22.719Z,3.44
2022-12-28T09:16:45.450Z,3.63
2022-12-28T09:19:15.250Z,3.82
2022-12-28T09:21:44.856Z,3.96
2022-12-28T09:24:13.653Z,4.07
2022-12-28T09:26:41.364Z,4.17
2022-12-28T09:29:13.127Z,4.21
2022-12-28T09:31:41.888Z,4.22
2022-12-28T09:36:44.458Z,4.12
2022-12-28T09:39:16.833Z,4.03
2022-12-28T09:41:57.870Z,4.05
2022-12-28T09:45:00.126Z,4.10
2022-12-28T09:47:45.445Z,4.16
2022-12-28T09:50:28.716Z,4.21
2022-12-28T09:53:17.114Z,4.25
2022-12-28T09:55:50.441Z,4.27
2022-12-28T09:58:17.988Z,4.19
2022-12-28T10:00:49.522Z,4.07
2022-12-28T10:03:27.410Z,4.08
2022-12-28T10:05:57.477Z,4.02
2022-12-28T10:08:27.448Z,4.01
2022-12-28T10:10:59.883Z,4.01
2022-12-28T10:16:05.949Z,4.00
2022-12-28T10:18:39.384Z,3.97
2022-12-28T10:21:05.448Z,3.97
2022-12-28T10:23:41.246Z,3.92
2022-12-28T10:26:07.192Z,3.90
2022-12-28T10:28:54.099Z,3.94
2022-12-28T10:31:37.625Z,4.03
2022-12-28T10:34:23.873Z,4.10
2022-12-28T10:36:54.288Z,4.19
2022-12-28T10:39:28.789Z,4.29
2022-12-28T10:41:58.668Z,4.30
2022-12-28T10:44:40.113Z,4.34
2022-12-28T10:47:17.759Z,4.37
2022-12-28T10:50:10.448Z,4.45
2022-12-28T10:52:21.405Z,4.52
2022-12-28T10:55:07.461Z,4.58
2022-12-28T10:57:28.935Z,4.62
2022-12-28T11:00:22.611Z,4.67
2022-12-28T11:02:50.300Z,4.73
2022-12-28T11:05:22.898Z,4.73
2022-12-28T11:07:55.832Z,4.66
2022-12-28T11:10:29.716Z,4.57
2022-12-28T11:13:00.644Z,4.58
2022-12-28T11:15:31.896Z,4.65
2022-12-28T11:18:04.480Z,4.75
2022-12-28T11:20:36.871Z,4.86
2022-12-28T11:23:08.858Z,4.88
2022-12-28T11:25:37.715Z,4.86
2022-12-28T11:28:09.739Z,4.88
2022-12-28T11:30:37.159Z,4.91
2022-12-28T11:33:07.876Z,4.92
2022-12-28T11:35:39.095Z,4.95
2022-12-28T11:38:09.948Z,4.99
2022-12-28T11:40:51.649Z,5.07
2022-12-28T11:43:38.732Z,5.13
2022-12-28T11:46:27.282Z,5.21
2022-12-28T11:49:01.462Z,5.28
2022-12-28T11:51:35.459Z,5.23
2022-12-28T11:54:08.711Z,5.22
2022-12-28T11:56:54.005Z,5.20
2022-12-28T11:59:31.462Z,5.21
2022-12-28T12:02:09.589Z,5.20
2022-12-28T12:04:44.385Z,5.10
2022-12-28T12:07:29.074Z,5.01
2022-12-28T12:10:30.921Z,4.99
2022-12-28T12:12:59.556Z,5.02
2022-12-28T12:15:35.691Z,5.07
2022-12-28T12:18:08.089Z,5.09
2022-12-28T12:20:58.809Z,5.10
2022-12-28T12:23:39.400Z,5.09
2022-12-28T12:26:21.638Z,5.10
2022-12-28T12:28:53.941Z,5.14
2022-12-28T12:31:33.196Z,5.16
2022-12-28T12:34:25.909Z,5.16
2022-12-28T12:37:40.166Z,5.23
2022-12-28T12:40:41.388Z,5.27
2022-12-28T12:43:38.363Z,5.30
2022-12-28T12:46:37.206Z,5.34
2022-12-28T12:49:43.379Z,5.39
2022-12-28T12:52:51.750Z,5.43
2022-12-28T12:55:48.489Z,5.42
2022-12-28T12:58:34.139Z,5.45
2022-12-28T13:01:50.117Z,5.49
2022-12-28T13:04:27.308Z,5.53
2022-12-28T13:06:59.039Z,5.58
2022-12-28T13:09:30.377Z,5.59
2022-12-28T13:11:59.633Z,5.61
2022-12-28T13:14:28.108Z,5.62
2022-12-28T13:16:58.464Z,5.64
2022-12-28T13:19:29.327Z,5.68
2022-12-28T13:21:58.600Z,5.69
2022-12-28T13:24:30.022Z,5.73
2022-12-28T13:26:59.828Z,5.76
2022-12-28T13:29:35.730Z,5.81
2022-12-28T13:32:03.589Z,5.83
2022-12-28T13:34:35.471Z,5.85
2022-12-28T13:37:16.186Z,5.88
2022-12-28T13:39:47.489Z,5.88
2022-12-28T13:42:19.903Z,5.89
2022-12-28T13:45:01.602Z,5.90
2022-12-28T13:47:40.305Z,5.92
2022-12-28T13:50:18.742Z,5.93
2022-12-28T13:53:06.769Z,5.95
2022-12-28T13:55:39.874Z,5.95
2022-12-28T13:58:18.643Z,5.95
2022-12-28T14:00:48.411Z,5.93
2022-12-28T14:03:18.223Z,5.88
2022-12-28T14:05:51.119Z,5.83
2022-12-28T14:08:18.761Z,5.79
2022-12-28T14:10:47.715Z,5.76
2022-12-28T14:13:18.181Z,5.71
2022-12-28T14:15:46.827Z,5.66
2022-12-28T14:18:18.289Z,5.57
2022-12-28T14:20:55.057Z,5.46
2022-12-28T14:23:32.647Z,5.37
2022-12-28T14:26:20.022Z,5.28
2022-12-28T14:28:52.427Z,5.18
2022-12-28T14:31:25.433Z,5.08
2022-12-28T14:34:03.123Z,4.99
2022-12-28T14:36:38.812Z,4.90
2022-12-28T14:39:07.365Z,4.80
2022-12-28T14:41:44.858Z,4.69
2022-12-28T14:44:20.925Z,4.58
2022-12-28T14:46:52.142Z,4.47
2022-12-28T14:49:35.635Z,4.35
2022-12-28T14:52:15.777Z,4.22
2022-12-28T14:54:51.071Z,4.11
2022-12-28T14:57:35.691Z,4.00
2022-12-28T15:00:17.814Z,3.89
2022-12-28T15:02:45.945Z,3.79
2022-12-28T15:05:38.586Z,3.69
2022-12-28T15:08:07.191Z,3.58
2022-12-28T15:10:42.282Z,3.46
2022-12-28T15:13:11.244Z,3.39
2022-12-28T15:15:38.885Z,3.33
2022-12-28T15:18:06.506Z,3.26
2022-12-28T15:20:37.623Z,3.16
2022-12-28T15:23:05.608Z,3.10
2022-12-28T15:25:35.139Z,3.02
2022-12-28T15:28:03.581Z,2.93
2022-12-28T15:30:31.043Z,2.88
2022-12-28T15:32:58.853Z,2.82
2022-12-28T15:35:26.626Z,2.73
2022-12-28T15:37:54.009Z,2.69
2022-12-28T15:40:21.760Z,2.62
2022-12-28T15:42:49.339Z,2.56
2022-12-28T15:45:17.552Z,2.50
2022-12-28T15:47:45.715Z,2.41
2022-12-28T15:50:13.466Z,2.36
2022-12-28T15:52:40.963Z,2.32
2022-12-28T15:55:09.093Z,2.26
2022-12-28T15:57:36.811Z,2.21
2022-12-28T16:00:05.649Z,2.16
2022-12-28T16:02:33.399Z,2.14
2022-12-28T16:05:01.743Z,2.11
2022-12-28T16:07:29.353Z,2.09
2022-12-28T16:09:56.819Z,2.08
2022-12-28T16:12:24.395Z,2.08
2022-12-28T16:14:51.868Z,2.05
2022-12-28T16:17:19.450Z,2.01
2022-12-28T16:19:47.232Z,1.97
2022-12-28T16:22:14.853Z,1.93
2022-12-28T16:24:42.590Z,1.92
2022-12-28T16:27:10.164Z,1.89
2022-12-28T16:29:37.995Z,1.84
2022-12-28T16:32:05.985Z,1.84
2022-12-28T16:34:33.903Z,1.83
2022-12-28T16:37:01.971Z,1.83
2022-12-28T16:39:30.450Z,1.83
2022-12-28T16:41:58.333Z,1.84
2022-12-28T16:44:27.366Z,1.86
2022-12-28T16:46:59.699Z,1.92
2022-12-28T16:49:29.071Z,1.95
2022-12-28T16:51:57.095Z,1.99
2022-12-28T16:54:26.912Z,2.03
2022-12-28T16:56:55.073Z,2.05
2022-12-28T16:59:26.507Z,2.02
2022-12-28T17:01:56.441Z,2.00
2022-12-28T17:04:24.485Z,1.95
2022-12-28T17:06:52.583Z,1.90
2022-12-28T17:09:20.996Z,1.86
2022-12-28T17:11:50.167Z,1.85
2022-12-28T17:14:35.933Z,1.83
2022-12-28T17:16:47.932Z,1.80
2022-12-28T17:19:16.452Z,1.80
2022-12-28T17:21:44.015Z,1.81
2022-12-28T17:24:11.710Z,1.81
2022-12-28T17:26:39.384Z,1.83
2022-12-28T17:29:06.966Z,1.82
2022-12-28T17:31:34.742Z,1.81
2022-12-28T17:34:03.180Z,1.79
2022-12-28T17:36:31.000Z,1.76
2022-12-28T17:38:58.547Z,1.72
2022-12-28T17:41:28.161Z,1.68
2022-12-28T17:43:59.419Z,1.63
2022-12-28T17:46:29.442Z,1.56
2022-12-28T17:48:59.765Z,1.52
2022-12-28T17:51:28.724Z,1.47
2022-12-28T17:53:57.150Z,1.41
2022-12-28T17:56:25.723Z,1.38
2022-12-28T17:58:58.512Z,1.35
2022-12-28T18:01:27.380Z,1.35
2022-12-28T18:03:56.906Z,1.36
2022-12-28T18:06:25.605Z,1.36
2022-12-28T18:08:53.183Z,1.35
2022-12-28T18:11:20.987Z,1.34
2022-12-28T18:13:48.718Z,1.33
2022-12-28T18:16:19.431Z,1.34
2022-12-28T18:18:47.803Z,1.42
2022-12-28T18:21:21.794Z,1.46
2022-12-28T18:23:50.623Z,1.47
2022-12-28T18:26:25.661Z,1.50
2022-12-28T18:28:55.950Z,1.52
2022-12-28T18:31:24.841Z,1.49
2022-12-28T18:33:52.719Z,1.47
2022-12-28T18:36:23.285Z,1.46
2022-12-28T18:38:50.801Z,1.47
2022-12-28T18:41:22.610Z,1.43
2022-12-28T18:43:53.234Z,1.41
2022-12-28T18:46:20.952Z,1.39
2022-12-28T18:48:48.397Z,1.37
2022-12-28T18:51:17.932Z,1.33
2022-12-28T18:53:45.783Z,1.31
2022-12-28T18:56:20.138Z,1.27
2022-12-28T18:58:55.764Z,1.24
2022-12-28T19:04:00.126Z,1.30
2022-12-28T19:06:28.781Z,1.30
2022-12-28T19:09:00.474Z,1.30
2022-12-28T19:11:28.931Z,1.29
2022-12-28T19:13:57.336Z,1.27
2022-12-28T19:16:31.010Z,1.25
2022-12-28T19:18:54.558Z,1.21
2022-12-28T19:21:40.272Z,1.17
2022-12-28T19:24:18.476Z,1.18
2022-12-28T19:26:47.377Z,1.17
2022-12-28T19:29:15.985Z,1.16
2022-12-28T19:31:44.214Z,1.15
2022-12-28T19:34:12.465Z,1.16
2022-12-28T19:36:40.307Z,1.20
2022-12-28T19:39:07.741Z,1.23
2022-12-28T19:41:35.343Z,1.27
2022-12-28T19:44:03.069Z,1.26
2022-12-28T19:46:31.137Z,1.20
2022-12-28T19:49:01.741Z,1.19
2022-12-28T19:51:32.148Z,1.19
2022-12-28T19:54:01.169Z,1.17
2022-12-28T19:56:30.858Z,1.18
2022-12-28T19:59:05.390Z,1.20
2022-12-28T20:01:28.688Z,1.20
2022-12-28T20:03:56.781Z,1.14
2022-12-28T20:06:28.311Z,1.09
2022-12-28T20:08:59.290Z,1.06
2022-12-28T20:11:28.419Z,1.06
2022-12-28T20:14:02.161Z,1.05
2022-12-28T20:16:32.483Z,1.07
2022-12-28T20:19:01.107Z,1.08
2022-12-28T20:21:28.585Z,1.08
2022-12-28T20:23:56.258Z,1.10
2022-12-28T20:26:26.291Z,1.15
2022-12-28T20:28:54.163Z,1.18
2022-12-28T20:31:22.105Z,1.21
2022-12-28T20:33:50.276Z,1.22
2022-12-28T20:36:24.812Z,1.20
2022-12-28T20:38:55.032Z,1.21
2022-12-28T20:41:44.964Z,1.23
2022-12-28T20:44:17.322Z,1.24
2022-12-28T20:46:45.955Z,1.21
2022-12-28T20:49:13.447Z,1.18
2022-12-28T20:51:41.865Z,1.20
2022-12-28T20:54:10.746Z,1.23
2022-12-28T20:56:41.306Z,1.24
2022-12-28T20:59:11.060Z,1.27
2022-12-28T21:01:39.874Z,1.23
2022-12-28T21:04:08.594Z,1.18
2022-12-28T21:06:36.237Z,1.12
2022-12-28T21:09:05.093Z,1.09
2022-12-28T21:11:32.883Z,1.04
2022-12-28T21:14:00.526Z,0.99
2022-12-28T21:16:28.211Z,0.94
2022-12-28T21:18:55.959Z,0.88
2022-12-28T21:21:23.889Z,0.87
2022-12-28T21:23:54.244Z,0.83
2022-12-28T21:26:22.564Z,0.81
2022-12-28T21:28:50.905Z,0.80
2022-12-28T21:31:18.332Z,0.79
2022-12-28T21:33:46.006Z,0.73
2022-12-28T21:36:17.187Z,0.69
2022-12-28T21:38:46.788Z,0.65
2022-12-28T21:41:37.134Z,0.63
2022-12-28T21:44:11.195Z,0.65
2022-12-28T21:46:39.266Z,0.68
2022-12-28T21:49:07.561Z,0.72
2022-12-28T21:51:35.605Z,0.70
2022-12-28T21:54:16.713Z,0.72
2022-12-28T21:56:48.581Z,0.76
2022-12-28T21:59:16.016Z,0.80
2022-12-28T22:02:02.235Z,0.80
2022-12-28T22:04:48.936Z,0.80
2022-12-28T22:07:18.801Z,0.77
2022-12-28T22:10:05.575Z,0.70
2022-12-28T22:12:34.022Z,0.67
2022-12-28T22:15:33.815Z,0.67
2022-12-28T22:18:08.701Z,0.65
2022-12-28T22:20:37.773Z,0.58
2022-12-28T22:23:06.509Z,0.54
2022-12-28T22:25:36.279Z,0.55
2022-12-28T22:28:05.097Z,0.53
2022-12-28T22:30:35.559Z,0.49
2022-12-28T22:33:03.732Z,0.47
2022-12-28T22:35:32.134Z,0.49
2022-12-28T22:38:00.441Z,0.53
2022-12-28T22:40:28.748Z,0.52
2022-12-28T22:42:56.401Z,0.51
2022-12-28T22:45:24.398Z,0.52
2022-12-28T22:47:53.734Z,0.53
2022-12-28T22:50:21.430Z,0.55
2022-12-28T22:52:49.137Z,0.61
2022-12-28T22:55:16.982Z,0.59
2022-12-28T22:57:44.715Z,0.63
2022-12-28T23:00:14.555Z,0.65
2022-12-28T23:02:42.423Z,0.66
2022-12-28T23:05:10.589Z,0.63
2022-12-28T23:07:38.982Z,0.62
2022-12-28T23:10:09.627Z,0.58
2022-12-28T23:12:37.633Z,0.56
2022-12-28T23:15:17.733Z,0.55
2022-12-28T23:17:47.727Z,0.54
2022-12-28T23:20:36.504Z,0.49
2022-12-28T23:23:22.647Z,0.53
2022-12-28T23:26:08.978Z,0.54
2022-12-28T23:28:36.670Z,0.54
2022-12-28T23:31:04.835Z,0.57
2022-12-28T23:33:32.268Z,0.59
2022-12-28T23:36:04.393Z,0.63
2022-12-28T23:38:32.853Z,0.62
2022-12-28T23:41:24.560Z,0.64
2022-12-28T23:43:52.128Z,0.65
2022-12-28T23:46:19.747Z,0.63
2022-12-28T23:48:47.493Z,0.59
2022-12-28T23:51:16.569Z,0.62
2022-12-28T23:53:44.361Z,0.63
2022-12-28T23:56:11.897Z,0.60
2022-12-28T23:58:39.773Z,0.58
